Time;durP1;ratioP1;P1;durP2;ratioP2;P2;SDS_P1;SDS_P2;PMS_P1;PMS_P2;Temp;Humidity;BMP_temperature;BMP_pressure;BME280_temperature;BME280_humidity;BME280_pressure;Samples;Min_cycle;Max_cycle;Signal;HPM_P1;HPM_P2
2021/01/13 00:02:20;;;;;;;21.85;7.80;;;1.10;99.90;;;;;;5094194;28;20020;-71
2021/01/13 00:04:45;;;;;;;24.75;8.27;;;0.90;99.90;;;;;;5094578;28;20354;-70
2021/01/13 00:07:13;;;;;;;25.80;7.50;;;0.90;99.90;;;;;;5094543;28;20125;-71
2021/01/13 00:09:39;;;;;;;22.52;7.40;;;1.00;99.90;;;;;;5094792;28;20021;-71
2021/01/13 00:12:05;;;;;;;26.85;7.15;;;1.00;99.90;;;;;;5094854;28;20073;-70
2021/01/13 00:14:31;;;;;;;38.17;8.15;;;0.90;99.90;;;;;;5094833;28;20028;-70
2021/01/13 00:16:56;;;;;;;20.52;7.30;;;0.80;99.90;;;;;;5094501;28;20034;-70
2021/01/13 00:19:22;;;;;;;22.98;7.35;;;1.00;99.90;;;;;;5094631;28;20031;-70
2021/01/13 00:21:49;;;;;;;21.83;8.15;;;1.10;99.90;;;;;;5093275;28;20016;-70
2021/01/13 00:24:15;;;;;;;24.27;7.78;;;1.00;99.90;;;;;;5094329;28;20012;-71
2021/01/13 00:26:41;;;;;;;22.17;7.60;;;0.90;99.90;;;;;;5094473;28;20076;-71
2021/01/13 00:29:07;;;;;;;22.25;7.18;;;0.90;99.90;;;;;;5094467;28;20411;-70
2021/01/13 00:31:32;;;;;;;22.77;7.43;;;1.00;99.90;;;;;;5092724;28;20020;-72
2021/01/13 00:33:58;;;;;;;16.80;7.28;;;1.00;99.90;;;;;;5094377;28;20020;-70
2021/01/13 00:36:25;;;;;;;23.42;6.80;;;1.00;99.90;;;;;;5094329;28;20024;-70
2021/01/13 00:38:51;;;;;;;22.42;6.65;;;1.00;99.90;;;;;;5093973;28;20056;-71
2021/01/13 00:41:17;;;;;;;20.70;6.75;;;1.00;99.90;;;;;;5094195;28;20369;-71
2021/01/13 00:43:44;;;;;;;19.75;6.15;;;1.00;99.90;;;;;;5093698;28;20095;-70
2021/01/13 00:46:11;;;;;;;23.25;6.32;;;1.00;99.90;;;;;;5093943;28;20012;-70
2021/01/13 00:48:36;;;;;;;18.05;6.43;;;0.90;99.90;;;;;;5093911;28;20031;-70
2021/01/13 00:51:02;;;;;;;24.95;7.43;;;0.90;99.90;;;;;;5094130;28;20024;-70
2021/01/13 00:53:28;;;;;;;21.17;6.18;;;0.90;99.90;;;;;;5094130;28;20028;-70
2021/01/13 00:55:53;;;;;;;21.13;6.53;;;0.90;99.90;;;;;;5093825;28;20028;-70
2021/01/13 00:58:22;;;;;;;24.23;6.85;;;0.80;99.90;;;;;;5094072;28;20032;-70
2021/01/13 01:00:47;;;;;;;22.70;7.30;;;0.70;99.90;;;;;;5092852;28;20028;-70
2021/01/13 01:03:13;;;;;;;22.60;7.53;;;0.60;99.90;;;;;;5092566;28;20476;-70
2021/01/13 01:05:38;;;;;;;20.00;7.35;;;0.60;99.90;;;;;;5093716;28;20020;-71
2021/01/13 01:08:04;;;;;;;21.95;8.10;;;0.60;99.90;;;;;;5093953;28;20020;-71
2021/01/13 01:10:32;;;;;;;25.05;7.88;;;0.60;99.90;;;;;;5093722;28;20024;-70
2021/01/13 01:12:58;;;;;;;30.80;8.50;;;0.50;99.90;;;;;;5096321;28;20024;-71
2021/01/13 01:15:24;;;;;;;17.45;7.43;;;0.60;99.90;;;;;;5098059;28;20150;-70
2021/01/13 01:17:50;;;;;;;26.75;9.07;;;0.70;99.90;;;;;;5098007;28;20020;-70
2021/01/13 01:20:17;;;;;;;20.08;7.97;;;0.80;99.90;;;;;;5096616;28;20112;-71
2021/01/13 01:22:57;;;;;;;24.00;9.55;;;0.80;99.90;;;;;;5097420;28;20117;-72
2021/01/13 01:25:24;;;;;;;23.85;9.27;;;0.80;99.90;;;;;;5097867;28;20016;-71
2021/01/13 01:27:51;;;;;;;22.13;8.13;;;0.80;99.90;;;;;;5097786;28;20549;-71
2021/01/13 01:30:18;;;;;;;23.70;8.90;;;0.90;99.90;;;;;;5097752;28;20031;-71
2021/01/13 01:32:44;;;;;;;23.20;8.88;;;0.80;99.90;;;;;;5096287;28;20031;-70
2021/01/13 01:35:11;;;;;;;33.83;9.75;;;0.90;99.90;;;;;;5097132;28;20028;-70
2021/01/13 01:37:37;;;;;;;19.25;9.02;;;0.90;99.90;;;;;;5097658;28;20031;-70
2021/01/13 01:40:05;;;;;;;25.70;9.73;;;0.90;99.90;;;;;;5096818;28;20425;-70
2021/01/13 01:42:30;;;;;;;22.80;9.70;;;0.90;99.90;;;;;;5095805;28;20104;-69
2021/01/13 01:44:56;;;;;;;26.83;10.10;;;0.90;99.90;;;;;;5095694;28;20469;-70
2021/01/13 01:48:01;;;;;;;27.33;10.95;;;0.90;99.90;;;;;;5097503;28;20477;-71
2021/01/13 01:50:31;;;;;;;24.52;9.88;;;1.00;99.90;;;;;;5097048;28;20058;-69
2021/01/13 01:53:20;;;;;;;31.13;11.02;;;1.10;99.90;;;;;;5096120;28;20021;-70
2021/01/13 01:56:09;;;;;;;25.02;10.63;;;1.10;99.90;;;;;;5078708;28;20024;-70
2021/01/13 01:58:35;;;;;;;27.25;11.85;;;1.20;99.90;;;;;;5095553;28;20047;-71
2021/01/13 02:01:04;;;;;;;34.55;11.88;;;1.00;99.90;;;;;;5096327;28;20047;-71
2021/01/13 02:03:39;;;;;;;31.92;11.95;;;1.00;99.90;;;;;;5097258;28;20023;-70
2021/01/13 02:06:07;;;;;;;40.70;12.77;;;1.10;99.90;;;;;;5095501;28;20035;-71
2021/01/13 02:08:38;;;;;;;35.45;11.93;;;1.10;99.90;;;;;;5097175;28;20020;-70
2021/01/13 02:11:04;;;;;;;23.85;11.50;;;1.10;99.90;;;;;;5095516;28;20380;-71
2021/01/13 02:13:30;;;;;;;30.00;10.88;;;1.10;99.90;;;;;;5096779;28;20487;-70
2021/01/13 02:15:56;;;;;;;29.05;11.07;;;1.20;99.90;;;;;;5097006;28;20052;-70
2021/01/13 02:18:26;;;;;;;36.88;12.70;;;1.20;99.90;;;;;;5096887;28;20484;-70
2021/01/13 02:20:54;;;;;;;26.33;10.98;;;1.20;99.90;;;;;;5094973;28;20036;-69
2021/01/13 02:23:31;;;;;;;29.63;12.05;;;1.20;99.90;;;;;;5095322;28;20022;-70
2021/01/13 02:26:36;;;;;;;26.73;10.95;;;1.20;99.90;;;;;;5096401;28;20020;-70
2021/01/13 02:29:15;;;;;;;38.58;11.77;;;1.20;99.90;;;;;;5094728;28;20077;-70
2021/01/13 02:31:54;;;;;;;27.67;11.80;;;1.10;99.90;;;;;;5096596;28;20103;-70
2021/01/13 02:34:44;;;;;;;32.85;12.73;;;1.10;99.90;;;;;;5096309;28;20024;-70
2021/01/13 02:37:40;;;;;;;32.72;10.68;;;1.10;99.90;;;;;;5096513;28;20070;-70
2021/01/13 02:40:10;;;;;;;27.58;10.15;;;1.20;99.90;;;;;;5095626;28;20059;-70
2021/01/13 02:42:40;;;;;;;31.33;11.93;;;1.30;99.90;;;;;;5096415;28;20051;-70
2021/01/13 02:45:13;;;;;;;28.08;10.82;;;1.20;99.90;;;;;;5096398;28;20032;-70
2021/01/13 02:48:01;;;;;;;40.10;12.38;;;1.20;99.90;;;;;;5096371;28;20144;-70
2021/01/13 02:50:28;;;;;;;32.60;11.43;;;1.10;99.90;;;;;;5095937;28;20103;-70
2021/01/13 02:56:01;;;;;;;29.02;11.88;;;1.20;99.90;;;;;;5091855;28;20344;-68
2021/01/13 03:01:06;;;;;;;37.10;12.25;;;1.20;99.90;;;;;;5112246;27;20343;-71
2021/01/13 03:03:33;;;;;;;39.08;12.38;;;1.20;99.90;;;;;;5111632;28;20435;-71
2021/01/13 03:06:06;;;;;;;33.63;12.15;;;1.10;99.90;;;;;;5111566;28;20016;-71
2021/01/13 03:09:00;;;;;;;31.10;12.75;;;1.10;99.90;;;;;;5111324;28;20537;-71
2021/01/13 03:11:25;;;;;;;37.08;12.35;;;1.10;99.90;;;;;;5110328;28;20036;-70
2021/01/13 03:13:56;;;;;;;39.80;12.02;;;1.10;99.90;;;;;;5111675;28;20037;-71
2021/01/13 03:16:22;;;;;;;34.90;12.02;;;1.10;99.90;;;;;;5111468;28;20020;-71
2021/01/13 03:19:01;;;;;;;32.13;11.40;;;1.10;99.90;;;;;;5111497;28;20381;-71
2021/01/13 03:21:40;;;;;;;28.90;11.27;;;1.10;99.90;;;;;;5111595;28;20020;-71
2021/01/13 03:24:13;;;;;;;38.38;13.18;;;1.10;99.90;;;;;;5111559;28;20523;-69
2021/01/13 03:26:41;;;;;;;;;;;1.10;99.90;;;;;;5111939;28;20027;-69
2021/01/13 03:29:08;;;;;;;31.88;12.10;;;1.10;99.90;;;;;;5111451;28;20049;-71
2021/01/13 03:31:54;;;;;;;25.02;11.55;;;1.10;99.90;;;;;;5109826;28;20028;-70
2021/01/13 03:34:29;;;;;;;31.42;11.98;;;1.10;99.90;;;;;;5109788;28;20035;-69
2021/01/13 03:37:13;;;;;;;28.15;12.38;;;1.00;99.90;;;;;;5111300;28;20016;-69
2021/01/13 03:39:39;;;;;;;23.98;13.35;;;0.90;99.90;;;;;;5110893;28;20026;-71
2021/01/13 03:42:08;;;;;;;27.65;13.25;;;1.00;99.90;;;;;;5110650;28;20030;-68
2021/01/13 03:44:35;;;;;;;30.27;12.93;;;0.90;99.90;;;;;;5111151;28;20515;-69
2021/01/13 03:47:38;;;;;;;32.30;13.18;;;0.90;99.90;;;;;;5110853;28;20027;-71
2021/01/13 03:50:18;;;;;;;23.25;9.20;;;0.90;99.90;;;;;;5110520;28;20441;-71
2021/01/13 03:52:58;;;;;;;28.27;12.32;;;0.90;99.90;;;;;;5109308;28;20024;-70
2021/01/13 03:55:25;;;;;;;25.08;11.73;;;1.00;99.90;;;;;;5111020;28;20095;-72
2021/01/13 04:01:15;;;;;;;29.98;11.70;;;1.10;99.90;;;;;;5112206;27;20347;-71
2021/01/13 04:04:09;;;;;;;32.47;12.40;;;1.10;99.90;;;;;;5111121;28;20023;-70
2021/01/13 04:06:43;;;;;;;19.63;10.98;;;1.10;99.90;;;;;;5111724;28;20020;-71
2021/01/13 04:09:11;;;;;;;25.80;10.90;;;1.20;99.90;;;;;;5110559;28;20085;-71
2021/01/13 04:11:37;;;;;;;25.35;11.35;;;1.20;99.90;;;;;;5111782;28;20023;-71
2021/01/13 04:14:04;;;;;;;28.20;11.65;;;1.20;99.90;;;;;;5110562;28;20453;-70
2021/01/13 04:16:36;;;;;;;28.60;12.00;;;1.20;99.90;;;;;;5111702;28;20469;-70
2021/01/13 04:19:03;;;;;;;29.88;11.82;;;1.20;99.90;;;;;;5111607;28;20031;-70
2021/01/13 04:21:29;;;;;;;32.03;11.25;;;1.30;99.90;;;;;;5111306;28;20035;-71
2021/01/13 04:23:58;;;;;;;28.88;11.73;;;1.30;99.90;;;;;;5111544;28;20377;-70
2021/01/13 04:26:25;;;;;;;26.90;11.95;;;1.40;99.90;;;;;;5111470;28;20173;-71
2021/01/13 04:28:51;;;;;;;24.73;11.25;;;1.40;99.90;;;;;;5111410;28;20449;-70
2021/01/13 04:31:17;;;;;;;31.92;12.55;;;1.50;99.90;;;;;;5111403;28;20076;-71
2021/01/13 04:33:43;;;;;;;30.58;12.93;;;1.40;99.90;;;;;;5110755;28;20023;-70
2021/01/13 04:36:09;;;;;;;28.02;12.20;;;1.40;99.90;;;;;;5111015;28;20035;-71
2021/01/13 04:38:35;;;;;;;28.65;11.85;;;1.50;99.90;;;;;;5110946;28;20124;-71
2021/01/13 04:44:00;;;;;;;27.48;12.10;;;1.40;99.90;;;;;;5091838;27;20160;-70
2021/01/13 04:46:32;;;;;;;25.67;11.98;;;1.40;99.90;;;;;;5091597;28;20104;-70
2021/01/13 04:49:19;;;;;;;40.40;13.57;;;1.40;99.90;;;;;;5091515;28;20040;-71
2021/01/13 04:51:46;;;;;;;33.13;12.63;;;1.40;99.90;;;;;;5091487;28;20337;-71
2021/01/13 04:54:16;;;;;;;30.10;12.68;;;1.30;99.90;;;;;;5091404;28;20023;-70
2021/01/13 04:57:07;;;;;;;25.30;12.10;;;1.30;99.90;;;;;;5091099;28;20048;-70
2021/01/13 04:59:57;;;;;;;25.75;11.70;;;1.30;99.90;;;;;;5090665;28;20033;-70
2021/01/13 05:03:03;;;;;;;29.70;12.10;;;1.30;99.90;;;;;;5090908;28;20077;-70
2021/01/13 05:05:30;;;;;;;24.95;12.40;;;1.30;99.90;;;;;;5089915;28;20052;-70
2021/01/13 05:08:15;;;;;;;30.27;12.68;;;1.30;99.90;;;;;;5090870;28;20025;-70
2021/01/13 05:10:42;;;;;;;29.08;13.57;;;1.30;99.90;;;;;;5091091;28;20051;-70
2021/01/13 05:13:15;;;;;;;27.45;13.00;;;1.30;99.90;;;;;;5091055;28;20024;-71
2021/01/13 05:15:56;;;;;;;31.83;12.75;;;1.30;99.90;;;;;;5090725;28;20025;-70
2021/01/13 05:18:57;;;;;;;26.05;12.80;;;1.40;99.90;;;;;;5090932;28;20021;-71
2021/01/13 05:21:25;;;;;;;31.80;13.57;;;1.50;99.90;;;;;;5090562;28;20416;-70
2021/01/13 05:23:54;;;;;;;28.63;12.73;;;1.50;99.90;;;;;;5089698;28;20020;-70
2021/01/13 05:26:23;;;;;;;35.08;13.23;;;1.50;99.90;;;;;;5090767;28;20025;-70
2021/01/13 05:31:44;;;;;;;31.92;14.45;;;1.60;99.90;;;;;;5091914;28;20833;-69
2021/01/13 05:34:16;;;;;;;29.60;12.07;;;1.50;99.90;;;;;;5091539;28;20032;-69
2021/01/13 05:36:51;;;;;;;26.73;13.02;;;1.50;99.90;;;;;;5091473;28;20027;-69
2021/01/13 05:39:23;;;;;;;28.98;12.18;;;1.60;99.90;;;;;;5072991;28;20369;-70
2021/01/13 05:41:49;;;;;;;30.88;13.35;;;1.60;99.90;;;;;;5090008;28;20077;-69
2021/01/13 05:44:15;;;;;;;27.40;12.90;;;1.70;99.90;;;;;;5091057;28;20032;-69
2021/01/13 05:46:45;;;;;;;28.80;12.68;;;1.70;99.90;;;;;;5090377;28;20392;-69
2021/01/13 05:49:11;;;;;;;27.58;12.43;;;1.70;99.90;;;;;;5091322;28;20084;-69
2021/01/13 05:51:37;;;;;;;30.77;12.25;;;1.80;99.90;;;;;;5090897;28;20512;-69
2021/01/13 05:54:04;;;;;;;30.98;13.35;;;1.80;99.90;;;;;;5091226;28;20592;-69
2021/01/13 05:56:37;;;;;;;26.73;12.02;;;1.80;99.90;;;;;;5091150;28;20081;-70
2021/01/13 05:59:05;;;;;;;27.95;12.70;;;1.80;99.90;;;;;;5091126;28;20032;-69
2021/01/13 06:04:10;;;;;;;22.27;11.48;;;1.80;99.90;;;;;;5091785;28;20345;-69
2021/01/13 06:06:41;;;;;;;21.15;11.32;;;1.80;99.90;;;;;;5091536;28;20028;-71
2021/01/13 06:09:09;;;;;;;26.02;10.95;;;1.90;99.90;;;;;;5091372;28;20040;-69
2021/01/13 06:11:38;;;;;;;28.45;11.82;;;2.00;99.90;;;;;;5091380;28;20017;-69
2021/01/13 06:14:04;;;;;;;29.83;12.25;;;2.00;99.90;;;;;;5091395;28;20028;-69
2021/01/13 06:16:30;;;;;;;25.08;11.88;;;2.00;99.90;;;;;;5091460;28;20535;-69
2021/01/13 06:18:56;;;;;;;25.67;12.05;;;2.00;99.90;;;;;;5091307;28;20036;-71
2021/01/13 06:21:22;;;;;;;31.98;12.75;;;2.00;99.90;;;;;;5091292;28;20029;-68
2021/01/13 06:23:50;;;;;;;20.73;10.45;;;2.00;99.90;;;;;;5090848;28;20020;-69
2021/01/13 06:26:17;;;;;;;26.70;10.80;;;2.10;99.90;;;;;;5090875;28;20016;-69
2021/01/13 06:29:15;;;;;;;31.15;10.82;;;2.10;99.90;;;;;;5091118;28;20020;-69
2021/01/13 06:31:43;;;;;;;24.52;11.27;;;2.10;99.90;;;;;;5089705;28;20059;-69
2021/01/13 06:34:25;;;;;;;22.83;10.80;;;2.10;99.90;;;;;;5091002;28;20103;-71
2021/01/13 06:37:14;;;;;;;15.60;8.00;;;2.20;99.90;;;;;;5090416;28;20016;-69
2021/01/13 06:39:40;;;;;;;24.90;11.40;;;2.20;99.90;;;;;;5090353;28;20036;-71
2021/01/13 06:42:06;;;;;;;31.27;12.05;;;2.10;99.90;;;;;;5090727;28;20036;-72
2021/01/13 06:44:48;;;;;;;22.55;11.48;;;2.10;99.90;;;;;;5090879;28;20044;-69
2021/01/13 06:47:14;;;;;;;16.63;7.43;;;2.20;99.90;;;;;;5089260;28;20105;-69
2021/01/13 06:49:39;;;;;;;24.08;10.55;;;2.20;99.90;;;;;;5090136;28;20048;-71
2021/01/13 06:52:08;;;;;;;28.27;11.82;;;2.10;99.90;;;;;;5090688;28;20078;-69
2021/01/13 06:54:44;;;;;;;29.63;11.88;;;2.10;99.90;;;;;;5089176;28;20051;-70
2021/01/13 06:57:13;;;;;;;28.27;11.60;;;2.10;99.90;;;;;;5089958;28;20431;-69
2021/01/13 06:59:38;;;;;;;28.23;11.50;;;2.10;99.90;;;;;;5090410;28;20094;-69
2021/01/13 07:02:04;;;;;;;23.02;12.70;;;2.10;99.90;;;;;;5088292;28;20048;-69
2021/01/13 07:04:44;;;;;;;24.20;11.10;;;2.10;99.90;;;;;;5089522;28;20377;-69
2021/01/13 07:07:12;;;;;;;24.48;10.23;;;2.10;99.90;;;;;;5088316;28;20111;-69
2021/01/13 07:09:41;;;;;;;24.52;11.25;;;2.10;99.90;;;;;;5088911;28;20048;-69
2021/01/13 07:12:13;;;;;;;28.35;10.93;;;2.20;99.90;;;;;;5089110;28;20059;-70
2021/01/13 07:14:41;;;;;;;24.38;10.35;;;2.20;99.90;;;;;;5078921;28;20116;-70
2021/01/13 07:17:08;;;;;;;20.92;9.65;;;2.20;99.90;;;;;;5076113;28;20021;-69
2021/01/13 07:19:35;;;;;;;21.70;10.63;;;2.30;99.90;;;;;;5076602;28;20074;-69
2021/01/13 07:22:01;;;;;;;28.92;10.52;;;2.30;99.90;;;;;;5075926;28;20028;-69
2021/01/13 07:24:28;;;;;;;32.25;9.93;;;2.30;99.90;;;;;;5076509;28;20434;-69
2021/01/13 07:26:56;;;;;;;25.67;9.65;;;2.30;99.90;;;;;;5075956;28;20017;-69
2021/01/13 07:29:24;;;;;;;20.50;10.63;;;2.30;99.90;;;;;;5075943;28;20027;-70
2021/01/13 07:31:53;;;;;;;20.40;9.95;;;2.40;99.90;;;;;;5074311;28;20020;-71
2021/01/13 07:40:29;;;;;;;20.58;10.23;;;2.40;99.90;;;;;;5103979;28;20073;-69
2021/01/13 07:43:04;;;;;;;19.60;7.88;;;2.40;99.90;;;;;;5110618;28;20033;-69
2021/01/13 07:45:37;;;;;;;27.45;10.18;;;2.50;99.90;;;;;;5110216;28;20354;-70
2021/01/13 07:48:23;;;;;;;21.23;9.45;;;2.50;99.90;;;;;;5110230;28;20110;-71
2021/01/13 07:50:50;;;;;;;26.85;10.60;;;2.50;99.90;;;;;;5089681;28;20020;-69
2021/01/13 07:53:24;;;;;;;25.00;10.73;;;2.50;99.90;;;;;;5090262;28;20028;-69
2021/01/13 07:55:59;;;;;;;27.83;10.55;;;2.50;99.90;;;;;;5109329;28;20031;-70
2021/01/13 07:58:27;;;;;;;20.88;9.55;;;2.50;99.90;;;;;;5107998;28;20460;-69
2021/01/13 08:01:33;;;;;;;18.98;9.40;;;2.60;99.90;;;;;;5110176;28;20384;-69
2021/01/13 08:04:35;;;;;;;21.35;9.30;;;2.60;99.90;;;;;;5109981;28;20094;-69
2021/01/13 08:07:02;;;;;;;33.92;9.18;;;2.60;99.90;;;;;;5110266;28;20055;-69
2021/01/13 08:09:34;;;;;;;25.35;9.85;;;2.70;99.90;;;;;;5110282;28;20019;-69
2021/01/13 08:18:25;;;;;;;26.20;10.45;;;2.70;99.90;;;;;;5111156;27;20355;-71
2021/01/13 08:21:14;;;;;;;27.83;11.65;;;2.70;99.90;;;;;;5111081;28;20020;-71
2021/01/13 08:23:47;;;;;;;28.15;10.48;;;2.80;99.90;;;;;;5110737;28;20020;-71
2021/01/13 08:26:13;;;;;;;23.52;11.35;;;2.80;99.90;;;;;;5111029;28;20796;-70
2021/01/13 08:28:41;;;;;;;28.90;11.35;;;2.80;99.90;;;;;;5110870;28;20043;-71
2021/01/13 08:31:07;;;;;;;18.98;10.95;;;2.80;99.90;;;;;;5111431;28;20028;-71
2021/01/13 08:33:35;;;;;;;28.20;10.15;;;2.80;99.90;;;;;;5110734;28;20020;-70
2021/01/13 08:36:09;;;;;;;32.58;9.63;;;2.90;99.90;;;;;;5109423;28;20059;-70
2021/01/13 08:38:35;;;;;;;37.22;10.40;;;2.90;99.90;;;;;;5109832;28;20065;-71
2021/01/13 08:41:22;;;;;;;22.30;9.57;;;2.90;99.90;;;;;;5110827;28;20019;-69
2021/01/13 08:44:10;;;;;;;21.25;9.10;;;3.00;99.90;;;;;;5110562;28;20107;-71
2021/01/13 08:46:42;;;;;;;22.63;9.02;;;3.00;99.90;;;;;;5109418;28;20524;-71
2021/01/13 08:49:08;;;;;;;28.80;9.30;;;3.00;99.90;;;;;;5110526;28;20023;-69
2021/01/13 08:51:35;;;;;;;22.17;9.48;;;3.10;99.90;;;;;;5110404;28;20036;-71
2021/01/13 08:54:21;;;;;;;20.02;8.68;;;3.10;99.90;;;;;;5110235;28;20019;-71
2021/01/13 08:57:03;;;;;;;25.85;8.95;;;3.10;99.90;;;;;;5110374;28;20031;-69
2021/01/13 08:59:37;;;;;;;20.40;8.83;;;3.10;99.90;;;;;;5109866;28;20095;-71
2021/01/13 09:02:05;;;;;;;21.80;8.15;;;3.20;99.90;;;;;;5110007;28;20265;-71
2021/01/13 09:04:47;;;;;;;25.52;8.45;;;3.30;99.90;;;;;;5109005;28;20024;-69
2021/01/13 09:07:14;;;;;;;21.88;6.95;;;3.40;99.90;;;;;;5110019;28;20377;-70
2021/01/13 09:09:51;;;;;;;28.15;7.10;;;3.40;99.90;;;;;;5109988;28;20027;-70
2021/01/13 09:12:38;;;;;;;20.85;6.30;;;3.50;99.90;;;;;;5109914;28;20374;-70
2021/01/13 09:20:27;;;;;;;15.80;5.88;;;3.50;99.90;;;;;;5110724;27;20343;-68
2021/01/13 09:22:57;;;;;;;23.52;7.30;;;3.50;99.90;;;;;;5109561;28;20024;-69
2021/01/13 09:25:55;;;;;;;21.20;7.82;;;3.60;99.90;;;;;;5110964;28;20020;-69
2021/01/13 09:28:21;;;;;;;15.50;6.28;;;3.60;99.90;;;;;;5094139;28;20106;-69
2021/01/13 09:30:46;;;;;;;16.75;5.32;;;3.70;99.90;;;;;;5110123;28;20062;-69
2021/01/13 09:33:17;;;;;;;15.15;6.07;;;3.80;99.90;;;;;;5109617;28;20032;-69
2021/01/13 09:35:46;;;;;;;20.10;6.57;;;3.80;99.90;;;;;;5108897;28;20024;-70
2021/01/13 09:38:14;;;;;;;18.70;6.47;;;3.90;99.90;;;;;;5109777;28;20443;-69
2021/01/13 09:40:54;;;;;;;21.27;5.82;;;3.90;99.90;;;;;;5110470;28;20575;-69
2021/01/13 09:43:41;;;;;;;17.60;6.07;;;3.80;99.90;;;;;;5110316;28;20024;-68
2021/01/13 09:46:27;;;;;;;18.73;6.45;;;3.80;99.90;;;;;;5110186;28;20376;-71
2021/01/13 09:48:58;;;;;;;16.60;6.07;;;3.80;99.90;;;;;;5106397;28;20119;-68
2021/01/13 09:51:24;;;;;;;24.33;7.10;;;3.90;99.90;;;;;;5109559;28;20060;-70
2021/01/13 09:53:52;;;;;;;15.75;6.10;;;4.10;99.90;;;;;;5110469;28;20024;-69
2021/01/13 09:56:18;;;;;;;23.92;7.28;;;4.10;99.90;;;;;;5110367;28;20059;-70
2021/01/13 09:58:46;;;;;;;19.73;5.88;;;4.10;99.90;;;;;;5109910;28;20453;-69
2021/01/13 10:01:17;;;;;;;12.90;6.10;;;4.10;99.90;;;;;;5108550;28;20583;-71
2021/01/13 10:03:45;;;;;;;18.88;6.50;;;4.10;99.90;;;;;;5109884;28;20028;-71
2021/01/13 10:06:29;;;;;;;16.30;6.00;;;4.10;99.90;;;;;;5109713;28;20095;-72
2021/01/13 10:08:59;;;;;;;16.38;5.50;;;4.30;99.90;;;;;;5109660;28;20491;-71
2021/01/13 10:11:26;;;;;;;17.30;7.25;;;4.20;99.90;;;;;;5109887;28;20024;-72
2021/01/13 10:14:00;;;;;;;18.42;5.63;;;4.20;99.90;;;;;;5109618;28;20085;-70
2021/01/13 10:16:27;;;;;;;17.95;5.10;;;4.30;99.90;;;;;;5110297;28;20031;-73
2021/01/13 10:18:56;;;;;;;16.40;6.00;;;4.40;99.90;;;;;;5109058;28;20102;-72
2021/01/13 10:21:23;;;;;;;14.95;5.40;;;4.40;99.90;;;;;;5108043;28;20461;-71
2021/01/13 10:23:50;;;;;;;14.55;5.68;;;4.80;99.90;;;;;;5109425;28;20485;-70
2021/01/13 10:26:17;;;;;;;17.75;6.10;;;4.70;99.90;;;;;;5107627;28;20063;-70
2021/01/13 10:28:43;;;;;;;21.73;6.90;;;4.50;99.90;;;;;;5109112;28;20125;-70
2021/01/13 10:31:21;;;;;;;22.60;5.95;;;4.50;99.90;;;;;;5099526;28;20031;-70
2021/01/13 10:33:53;;;;;;;19.90;5.63;;;4.50;99.90;;;;;;5095275;28;20030;-71
2021/01/13 10:36:32;;;;;;;25.02;6.93;;;4.50;99.90;;;;;;5095829;28;20024;-70
2021/01/13 10:38:59;;;;;;;20.60;7.13;;;4.60;99.90;;;;;;5093948;28;20024;-71
2021/01/13 10:41:30;;;;;;;24.85;7.95;;;4.70;99.90;;;;;;5096031;28;20412;-72
2021/01/13 10:44:01;;;;;;;16.48;6.45;;;4.70;99.90;;;;;;5095255;28;20109;-70
2021/01/13 10:46:30;;;;;;;14.23;6.05;;;4.60;99.90;;;;;;5095785;28;20026;-70
2021/01/13 10:49:02;;;;;;;16.25;7.68;;;4.80;99.90;;;;;;5094568;28;20540;-70
2021/01/13 10:51:36;;;;;;;22.38;6.75;;;4.70;99.90;;;;;;5095778;28;20102;-70
2021/01/13 10:54:05;;;;;;;24.30;7.50;;;4.70;99.90;;;;;;5095432;28;20031;-71
2021/01/13 10:56:33;;;;;;;21.52;8.35;;;4.80;99.90;;;;;;5095269;28;20024;-70
2021/01/13 10:59:03;;;;;;;18.02;8.55;;;4.80;99.90;;;;;;5092801;28;20028;-69
2021/01/13 11:01:30;;;;;;;22.83;8.60;;;4.90;99.90;;;;;;5094950;28;20027;-70
2021/01/13 11:03:55;;;;;;;19.67;8.05;;;5.00;99.90;;;;;;5094554;28;20016;-70
2021/01/13 11:06:24;;;;;;;23.23;8.80;;;4.80;99.90;;;;;;5094674;28;20028;-70
2021/01/13 11:08:53;;;;;;;25.92;10.45;;;4.80;99.90;;;;;;5094715;28;20362;-70
2021/01/13 11:11:20;;;;;;;27.63;11.45;;;4.80;99.90;;;;;;5095164;28;20465;-70
2021/01/13 11:13:46;;;;;;;24.50;11.00;;;4.90;99.90;;;;;;5094702;28;20032;-70
2021/01/13 11:16:14;;;;;;;22.38;10.55;;;5.60;99.90;;;;;;5094806;28;20024;-71
2021/01/13 11:18:41;;;;;;;30.75;12.18;;;5.70;99.90;;;;;;5094638;28;20040;-70
2021/01/13 11:21:08;;;;;;;27.95;11.80;;;5.20;99.90;;;;;;5093836;28;20489;-70
2021/01/13 11:23:43;;;;;;;28.02;12.40;;;5.00;99.90;;;;;;5094089;28;20032;-70
2021/01/13 11:26:09;;;;;;;28.10;12.43;;;4.70;99.90;;;;;;5095194;28;20024;-70
2021/01/13 11:28:35;;;;;;;26.02;11.02;;;4.50;99.90;;;;;;5095006;28;20130;-70
2021/01/13 11:31:01;;;;;;;35.08;13.60;;;4.50;99.90;;;;;;5095270;28;20044;-70
2021/01/13 11:33:26;;;;;;;27.13;10.27;;;4.40;99.90;;;;;;5092944;28;20188;-70
2021/01/13 11:35:53;;;;;;;26.98;13.65;;;4.40;99.90;;;;;;5095190;28;20032;-72
2021/01/13 11:38:48;;;;;;;35.28;13.75;;;4.40;99.90;;;;;;5094572;28;20101;-72
2021/01/13 11:41:53;;;;;;;31.92;14.65;;;4.30;99.90;;;;;;5094941;28;20016;-71
2021/01/13 11:44:29;;;;;;;32.00;12.18;;;4.30;99.90;;;;;;5094673;28;20103;-71
2021/01/13 11:47:08;;;;;;;22.83;11.70;;;4.30;99.90;;;;;;5093444;28;20028;-70
2021/01/13 11:49:41;;;;;;;31.73;14.02;;;4.30;99.90;;;;;;5094991;28;20028;-72
2021/01/13 11:52:08;;;;;;;36.78;13.10;;;4.30;99.90;;;;;;5094729;28;20435;-72
2021/01/13 11:54:35;;;;;;;35.35;12.20;;;4.40;99.90;;;;;;5094587;28;20039;-70
2021/01/13 11:57:29;;;;;;;25.73;11.82;;;4.40;99.90;;;;;;5094463;28;20111;-70
2021/01/13 11:59:56;;;;;;;;;;;4.50;99.90;;;;;;5093301;28;20031;-70
2021/01/13 12:02:25;;;;;;;33.83;12.98;;;4.50;99.90;;;;;;5094569;28;19908;-70
2021/01/13 12:04:51;;;;;;;21.52;11.23;;;4.50;99.90;;;;;;5093351;28;20362;-70
2021/01/13 12:07:19;;;;;;;26.45;12.13;;;4.50;99.90;;;;;;5094394;28;20059;-70
2021/01/13 12:09:45;;;;;;;31.33;13.32;;;4.60;99.90;;;;;;5094620;28;20020;-70
2021/01/13 12:12:26;;;;;;;25.30;13.18;;;4.50;99.90;;;;;;5094583;28;20031;-70
2021/01/13 12:14:53;;;;;;;27.50;12.35;;;4.70;99.90;;;;;;5093005;28;20504;-71
2021/01/13 12:17:21;;;;;;;23.67;12.60;;;4.70;99.90;;;;;;5094504;28;20081;-70
2021/01/13 12:19:46;;;;;;;30.00;12.25;;;4.70;99.90;;;;;;5093701;28;20044;-70
2021/01/13 12:22:12;;;;;;;29.35;12.15;;;4.80;99.90;;;;;;5093857;28;20028;-70
2021/01/13 12:24:42;;;;;;;31.85;13.70;;;4.80;99.90;;;;;;5093737;28;20073;-70
2021/01/13 12:27:25;;;;;;;39.55;15.80;;;4.80;99.90;;;;;;5093750;28;20028;-72
2021/01/13 12:30:11;;;;;;;37.40;18.02;;;4.80;99.90;;;;;;5093618;28;20099;-70
2021/01/13 12:32:39;;;;;;;30.25;16.90;;;4.80;99.90;;;;;;5094092;28;20024;-70
2021/01/13 12:35:06;;;;;;;35.03;17.45;;;4.80;99.90;;;;;;5093511;28;20082;-70
2021/01/13 12:37:45;;;;;;;38.78;18.55;;;5.00;99.90;;;;;;5093332;28;20020;-70
2021/01/13 12:40:11;;;;;;;32.58;18.52;;;5.10;99.90;;;;;;5073678;28;20017;-70
2021/01/13 12:42:37;;;;;;;34.58;18.33;;;5.10;99.90;;;;;;5087018;28;20603;-71
2021/01/13 12:45:04;;;;;;;30.55;15.45;;;5.00;99.90;;;;;;5093489;28;20061;-71
2021/01/13 12:47:29;;;;;;;38.25;20.17;;;4.90;99.90;;;;;;5093291;28;20028;-72
2021/01/13 12:49:55;;;;;;;38.78;19.23;;;4.80;99.90;;;;;;5093458;28;20032;-71
2021/01/13 12:52:21;;;;;;;34.15;18.35;;;4.80;99.90;;;;;;5093020;28;20024;-70
2021/01/13 12:54:47;;;;;;;36.28;18.92;;;4.90;99.90;;;;;;5092026;28;20059;-73
2021/01/13 12:57:14;;;;;;;28.85;15.05;;;4.90;99.90;;;;;;5093317;28;20032;-73
2021/01/13 12:59:40;;;;;;;30.75;15.73;;;4.90;99.90;;;;;;5092082;28;20452;-70
2021/01/13 13:02:06;;;;;;;32.63;17.58;;;4.90;99.90;;;;;;5093308;28;20047;-72
2021/01/13 13:04:32;;;;;;;28.30;16.80;;;4.80;99.90;;;;;;5093555;28;20047;-71
2021/01/13 13:06:57;;;;;;;27.02;15.40;;;4.90;99.90;;;;;;5093284;28;20059;-72
2021/01/13 13:09:23;;;;;;;29.38;15.05;;;4.80;99.90;;;;;;5092217;28;20043;-72
2021/01/13 13:11:49;;;;;;;27.33;13.88;;;4.80;99.90;;;;;;5093161;28;20024;-72
2021/01/13 13:14:15;;;;;;;22.80;13.82;;;4.90;99.90;;;;;;5093074;28;20022;-70
2021/01/13 13:16:42;;;;;;;24.25;12.93;;;4.90;99.90;;;;;;5092983;28;20024;-71
2021/01/13 13:19:09;;;;;;;31.65;13.40;;;4.90;99.90;;;;;;5091817;28;20051;-72
2021/01/13 13:21:34;;;;;;;26.15;13.68;;;5.00;99.90;;;;;;5093380;28;20024;-71
2021/01/13 13:24:00;;;;;;;22.50;9.35;;;;;;;;;;5092943;28;20430;-70
2021/01/13 13:26:26;;;;;;;19.17;11.25;;;5.00;99.90;;;;;;5093349;28;20052;-71
2021/01/13 13:28:52;;;;;;;25.90;10.45;;;5.00;99.90;;;;;;5093191;28;20028;-71
2021/01/13 13:31:19;;;;;;;18.77;9.32;;;5.10;99.90;;;;;;5092114;28;20024;-71
2021/01/13 13:33:46;;;;;;;20.23;10.20;;;5.10;99.90;;;;;;5092727;28;20032;-72
2021/01/13 13:36:12;;;;;;;20.17;9.95;;;5.00;99.90;;;;;;5093034;28;20145;-72
2021/01/13 13:38:38;;;;;;;16.90;10.02;;;5.00;99.90;;;;;;5091446;28;20031;-72